createdAt,value
2022-11-14T00:00:39.158Z,61.60
2022-11-14T00:03:06.521Z,61.60
2022-11-14T00:05:33.275Z,61.60
2022-11-14T00:07:59.833Z,61.60
2022-11-14T00:10:26.452Z,61.60
2022-11-14T00:12:53.021Z,61.50
2022-11-14T00:15:19.650Z,61.60
2022-11-14T00:17:46.222Z,61.60
2022-11-14T00:20:12.961Z,61.60
2022-11-14T00:22:39.532Z,61.60
2022-11-14T00:25:06.372Z,61.50
2022-11-14T00:27:32.973Z,61.40
2022-11-14T00:29:59.584Z,61.50
2022-11-14T00:32:26.204Z,61.40
2022-11-14T00:34:52.799Z,61.40
2022-11-14T00:37:19.391Z,61.70
2022-11-14T00:39:45.959Z,61.50
2022-11-14T00:42:12.525Z,61.50
2022-11-14T00:44:39.091Z,61.40
2022-11-14T00:47:05.718Z,61.40
2022-11-14T00:49:32.377Z,61.40
2022-11-14T00:51:58.952Z,61.50
2022-11-14T00:54:26.645Z,61.50
2022-11-14T00:56:53.240Z,61.50
2022-11-14T00:59:19.847Z,61.40
2022-11-14T01:01:46.424Z,61.40
2022-11-14T01:04:12.984Z,61.40
2022-11-14T01:06:39.573Z,61.40
2022-11-14T01:09:06.163Z,61.40
2022-11-14T01:11:32.762Z,61.50
2022-11-14T01:13:59.331Z,61.40
2022-11-14T01:16:25.921Z,61.40
2022-11-14T01:18:52.488Z,61.40
2022-11-14T01:21:19.071Z,61.40
2022-11-14T01:23:45.649Z,61.40
2022-11-14T01:26:13.305Z,61.40
2022-11-14T01:28:40.099Z,61.40
2022-11-14T01:31:15.245Z,61.40
2022-11-14T01:33:41.937Z,61.40
2022-11-14T01:36:08.774Z,61.40
2022-11-14T01:38:35.610Z,61.40
2022-11-14T01:41:02.195Z,61.40
2022-11-14T01:43:30.897Z,61.40
2022-11-14T01:46:00.863Z,61.40
2022-11-14T01:48:38.967Z,61.40
2022-11-14T01:51:15.097Z,61.40
2022-11-14T01:53:42.146Z,61.40
2022-11-14T01:56:08.773Z,61.40
2022-11-14T01:58:36.372Z,61.40
2022-11-14T02:01:03.001Z,61.40
2022-11-14T02:03:29.675Z,61.40
2022-11-14T02:05:56.262Z,61.40
2022-11-14T02:08:22.830Z,61.40
2022-11-14T02:10:49.443Z,61.40
2022-11-14T02:13:16.001Z,61.40
2022-11-14T02:15:42.597Z,61.40
2022-11-14T02:18:09.179Z,61.40
2022-11-14T02:20:43.071Z,61.40
2022-11-14T02:23:12.585Z,61.30
2022-11-14T02:25:39.345Z,61.40
2022-11-14T02:28:07.009Z,61.40
2022-11-14T02:30:33.644Z,61.40
2022-11-14T02:33:15.521Z,61.30
2022-11-14T02:35:42.298Z,61.40
2022-11-14T02:38:09.205Z,61.40
2022-11-14T02:40:35.858Z,61.30
2022-11-14T02:43:02.431Z,61.30
2022-11-14T02:45:29.025Z,61.30
2022-11-14T02:47:55.617Z,61.30
2022-11-14T02:50:22.211Z,61.30
2022-11-14T02:52:48.789Z,61.30
2022-11-14T02:55:15.357Z,61.30
2022-11-14T02:57:41.923Z,61.30
2022-11-14T03:00:14.610Z,61.30
2022-11-14T03:02:41.600Z,62.10
2022-11-14T03:05:08.310Z,61.30
2022-11-14T03:07:34.949Z,61.30
2022-11-14T03:10:02.010Z,61.30
2022-11-14T03:12:28.617Z,61.30
2022-11-14T03:14:55.189Z,61.30
2022-11-14T03:17:24.471Z,61.30
2022-11-14T03:19:51.115Z,61.30
2022-11-14T03:22:17.708Z,61.30
2022-11-14T03:24:44.279Z,61.30
2022-11-14T03:27:10.874Z,61.30
2022-11-14T03:29:37.444Z,61.30
2022-11-14T03:32:04.208Z,61.30
2022-11-14T03:34:30.773Z,61.30
2022-11-14T03:36:57.405Z,61.30
2022-11-14T03:39:23.969Z,61.50
2022-11-14T03:41:50.550Z,61.30
2022-11-14T03:44:17.111Z,61.30
2022-11-14T03:46:43.689Z,61.30
2022-11-14T03:49:10.259Z,61.30
2022-11-14T03:51:36.843Z,61.20
2022-11-14T03:54:03.552Z,61.20
2022-11-14T03:56:30.171Z,61.30
2022-11-14T03:58:56.834Z,61.20
2022-11-14T04:01:23.483Z,61.20
2022-11-14T04:03:50.104Z,61.20
2022-11-14T04:06:16.668Z,61.20
2022-11-14T04:08:43.236Z,61.20
2022-11-14T04:11:09.810Z,61.20
2022-11-14T04:13:36.386Z,61.20
2022-11-14T04:16:03.056Z,61.20
2022-11-14T04:18:30.051Z,61.20
2022-11-14T04:20:56.947Z,61.20
2022-11-14T04:23:23.528Z,61.20
2022-11-14T04:25:50.109Z,61.20
2022-11-14T04:28:16.682Z,61.20
2022-11-14T04:30:45.077Z,61.20
2022-11-14T04:33:11.759Z,61.20
2022-11-14T04:35:38.332Z,61.20
2022-11-14T04:38:04.962Z,61.20
2022-11-14T04:40:31.521Z,61.20
2022-11-14T04:42:58.181Z,61.20
2022-11-14T04:45:24.804Z,61.20
2022-11-14T04:47:51.484Z,61.20
2022-11-14T04:50:18.111Z,61.20
2022-11-14T04:52:44.689Z,61.20
2022-11-14T04:55:11.285Z,61.00
2022-11-14T04:57:37.870Z,61.20
2022-11-14T05:00:05.074Z,61.10
2022-11-14T05:02:32.760Z,61.20
2022-11-14T05:04:59.329Z,61.00
2022-11-14T05:07:25.982Z,61.10
2022-11-14T05:09:52.638Z,61.20
2022-11-14T05:12:19.219Z,61.00
2022-11-14T05:14:45.808Z,61.00
2022-11-14T05:17:12.446Z,61.00
2022-11-14T05:19:39.030Z,61.10
2022-11-14T05:22:05.608Z,61.00
2022-11-14T05:24:32.230Z,61.00
2022-11-14T05:26:59.132Z,61.00
2022-11-14T05:29:25.710Z,61.00
2022-11-14T05:31:52.275Z,61.00
2022-11-14T05:34:18.861Z,61.00
2022-11-14T05:36:45.439Z,61.00
2022-11-14T05:39:12.023Z,61.00
2022-11-14T05:41:38.585Z,61.00
2022-11-14T05:44:05.376Z,61.00
2022-11-14T05:46:31.953Z,61.00
2022-11-14T05:48:58.531Z,61.00
2022-11-14T05:51:25.108Z,61.00
2022-11-14T05:53:51.681Z,61.80
2022-11-14T05:56:18.287Z,61.00
2022-11-14T05:58:44.855Z,61.10
2022-11-14T06:01:13.223Z,61.00
2022-11-14T06:03:44.359Z,61.00
2022-11-14T06:06:12.700Z,61.00
2022-11-14T06:08:39.318Z,61.00
2022-11-14T06:11:10.241Z,61.00
2022-11-14T06:13:36.940Z,61.00
2022-11-14T06:16:08.201Z,61.00
2022-11-14T06:18:34.978Z,61.00
2022-11-14T06:21:06.284Z,61.00
2022-11-14T06:23:32.920Z,61.00
2022-11-14T06:26:05.921Z,60.90
2022-11-14T06:28:32.683Z,61.00
2022-11-14T06:31:03.021Z,60.90
2022-11-14T06:33:30.171Z,60.90
2022-11-14T06:36:00.632Z,60.90
2022-11-14T06:38:27.873Z,61.00
2022-11-14T06:41:04.895Z,60.90
2022-11-14T06:43:35.489Z,60.90
2022-11-14T06:46:02.430Z,60.90
2022-11-14T06:48:29.313Z,60.90
2022-11-14T06:50:56.703Z,60.90
2022-11-14T06:53:23.325Z,60.90
2022-11-14T06:56:00.674Z,60.90
2022-11-14T06:58:28.875Z,60.90
2022-11-14T07:00:55.854Z,60.90
2022-11-14T07:03:22.722Z,60.90
2022-11-14T07:05:49.322Z,60.90
2022-11-14T07:08:30.014Z,60.90
2022-11-14T07:11:03.992Z,60.90
2022-11-14T07:13:31.288Z,60.90
2022-11-14T07:15:57.910Z,60.90
2022-11-14T07:18:24.564Z,60.90
2022-11-14T07:20:56.670Z,60.90
2022-11-14T07:23:23.264Z,60.90
2022-11-14T07:25:49.924Z,60.90
2022-11-14T07:28:16.501Z,60.90
2022-11-14T07:30:43.070Z,60.80
2022-11-14T07:33:10.239Z,60.80
2022-11-14T07:35:39.495Z,60.90
2022-11-14T07:38:06.070Z,60.80
2022-11-14T07:40:32.649Z,60.90
2022-11-14T07:43:00.228Z,60.80
2022-11-14T07:45:27.373Z,60.90
2022-11-14T07:47:57.787Z,61.60
2022-11-14T07:50:25.349Z,60.80
2022-11-14T07:52:55.431Z,60.90
2022-11-14T07:55:22.131Z,60.80
2022-11-14T07:57:49.566Z,60.80
2022-11-14T08:00:16.943Z,60.80
2022-11-14T08:02:43.545Z,60.80
2022-11-14T08:05:10.109Z,60.80
2022-11-14T08:07:36.695Z,60.80
2022-11-14T08:10:03.526Z,60.80
2022-11-14T08:12:30.106Z,60.80
2022-11-14T08:14:56.718Z,60.70
2022-11-14T08:17:23.518Z,60.70
2022-11-14T08:19:50.098Z,60.80
2022-11-14T08:22:16.670Z,60.70
2022-11-14T08:24:43.266Z,60.80
2022-11-14T08:27:09.835Z,60.80
2022-11-14T08:29:36.417Z,60.80
2022-11-14T08:32:02.973Z,60.80
2022-11-14T08:34:29.652Z,60.70
2022-11-14T08:36:57.735Z,60.70
2022-11-14T08:39:24.313Z,60.70
2022-11-14T08:41:50.881Z,60.70
2022-11-14T08:44:17.449Z,60.70
2022-11-14T08:46:44.021Z,60.70
2022-11-14T08:49:10.619Z,60.80
2022-11-14T08:51:37.202Z,60.80
2022-11-14T08:54:03.873Z,60.80
2022-11-14T08:56:30.442Z,60.80
2022-11-14T08:58:57.042Z,60.80
2022-11-14T09:01:23.614Z,60.80
2022-11-14T09:03:52.210Z,60.80
2022-11-14T09:06:22.103Z,60.80
2022-11-14T09:08:48.691Z,60.70
2022-11-14T09:11:19.119Z,60.70
2022-11-14T09:13:46.123Z,60.70
2022-11-14T09:16:12.708Z,60.70
2022-11-14T09:18:39.281Z,60.70
2022-11-14T09:21:07.424Z,60.70
2022-11-14T09:23:34.441Z,60.70
2022-11-14T09:26:08.348Z,60.70
2022-11-14T09:28:35.100Z,60.70
2022-11-14T09:31:03.028Z,60.70
2022-11-14T09:33:30.083Z,60.70
2022-11-14T09:35:58.505Z,60.70
2022-11-14T09:38:25.067Z,60.70
2022-11-14T09:41:04.371Z,60.70
2022-11-14T09:43:57.240Z,60.70
2022-11-14T09:46:47.087Z,60.70
2022-11-14T09:49:41.375Z,60.60
2022-11-14T09:52:38.413Z,60.70
2022-11-14T09:55:12.947Z,60.70
2022-11-14T09:57:44.134Z,60.70
2022-11-14T10:00:19.230Z,61.40
2022-11-14T10:02:54.189Z,60.70
2022-11-14T10:05:29.847Z,60.70
2022-11-14T10:08:21.447Z,60.70
2022-11-14T10:10:58.275Z,60.70
2022-11-14T10:13:42.322Z,60.70
2022-11-14T10:16:30.011Z,60.70
2022-11-14T10:19:06.720Z,60.60
2022-11-14T10:22:00.150Z,60.60
2022-11-14T10:24:36.116Z,60.70
2022-11-14T10:27:07.765Z,60.70
2022-11-14T10:29:50.250Z,60.60
2022-11-14T10:32:54.531Z,60.60
2022-11-14T10:35:35.155Z,60.60
2022-11-14T10:38:34.462Z,60.60
2022-11-14T10:41:02.195Z,60.60
2022-11-14T10:43:30.496Z,60.60
2022-11-14T10:46:08.461Z,60.50
2022-11-14T10:48:36.795Z,60.60
2022-11-14T10:51:08.139Z,60.50
2022-11-14T10:53:55.690Z,60.50
2022-11-14T10:56:22.341Z,60.50
2022-11-14T10:58:50.036Z,60.50
2022-11-14T11:01:36.344Z,60.50
2022-11-14T11:04:13.675Z,60.60
2022-11-14T11:06:40.480Z,60.60
2022-11-14T11:09:27.523Z,60.50
2022-11-14T11:11:56.680Z,60.60
2022-11-14T11:14:23.242Z,60.60
2022-11-14T11:16:49.832Z,60.60
2022-11-14T11:19:24.161Z,60.50
2022-11-14T11:21:51.981Z,60.50
2022-11-14T11:24:35.077Z,60.50
2022-11-14T11:27:25.702Z,60.50
2022-11-14T11:30:19.070Z,60.60
2022-11-14T11:32:45.922Z,60.60
2022-11-14T11:35:13.917Z,60.70
2022-11-14T11:37:44.165Z,60.70
2022-11-14T11:40:17.183Z,60.70
2022-11-14T11:45:32.853Z,60.60
2022-11-14T11:48:18.732Z,60.60
2022-11-14T11:50:45.389Z,60.50
2022-11-14T11:53:22.238Z,60.60
2022-11-14T11:55:51.143Z,60.60
2022-11-14T11:58:46.006Z,60.60
2022-11-14T12:01:13.439Z,60.60
2022-11-14T12:03:41.550Z,60.50
2022-11-14T12:06:18.417Z,60.50
2022-11-14T12:09:07.177Z,60.70
2022-11-14T12:11:36.065Z,60.60
2022-11-14T12:14:34.220Z,60.50
2022-11-14T12:17:10.860Z,60.50
2022-11-14T12:20:02.187Z,60.50
2022-11-14T12:23:03.686Z,60.40
2022-11-14T12:25:48.167Z,60.40
2022-11-14T12:28:42.070Z,60.50
2022-11-14T12:31:11.857Z,60.40
2022-11-14T12:33:40.591Z,60.30
2022-11-14T12:36:09.883Z,60.40
2022-11-14T12:38:47.119Z,60.40
2022-11-14T12:41:21.028Z,60.40
2022-11-14T12:43:47.770Z,60.40
2022-11-14T12:46:14.383Z,60.50
2022-11-14T12:48:44.618Z,60.40
2022-11-14T12:51:29.386Z,60.40
2022-11-14T12:53:58.765Z,60.20
2022-11-14T12:56:31.457Z,60.30
2022-11-14T12:59:22.025Z,60.40
2022-11-14T13:02:01.180Z,60.30
2022-11-14T13:04:42.900Z,60.20
2022-11-14T13:07:47.083Z,60.30
2022-11-14T13:10:52.428Z,60.30
2022-11-14T13:13:37.550Z,60.90
2022-11-14T13:16:22.474Z,60.20
2022-11-14T13:19:28.824Z,60.20
2022-11-14T13:22:19.635Z,60.20
2022-11-14T13:24:58.412Z,60.10
2022-11-14T13:28:05.262Z,60.10
2022-11-14T13:31:11.531Z,60.20
2022-11-14T13:33:45.798Z,60.30
2022-11-14T13:36:30.997Z,60.20
2022-11-14T13:39:28.188Z,60.10
2022-11-14T13:42:25.837Z,60.10
2022-11-14T13:45:02.769Z,60.10
2022-11-14T13:47:40.945Z,60.20
2022-11-14T13:50:37.042Z,60.20
2022-11-14T13:53:13.556Z,60.20
2022-11-14T13:56:04.996Z,60.20
2022-11-14T13:58:54.307Z,60.20
2022-11-14T14:01:29.854Z,60.10
2022-11-14T14:03:58.811Z,60.10
2022-11-14T14:06:37.655Z,60.20
2022-11-14T14:09:27.358Z,60.20
2022-11-14T14:12:06.944Z,60.30
2022-11-14T14:14:45.312Z,60.20
2022-11-14T14:17:19.092Z,60.20
2022-11-14T14:20:05.407Z,60.10
2022-11-14T14:23:02.757Z,60.20
2022-11-14T14:25:42.207Z,60.30
2022-11-14T14:28:27.298Z,60.20
2022-11-14T14:31:15.010Z,60.30
2022-11-14T14:33:48.091Z,60.30
2022-11-14T14:36:25.671Z,60.30
2022-11-14T14:39:11.583Z,60.30
2022-11-14T14:41:38.156Z,60.30
2022-11-14T14:44:04.834Z,60.30
2022-11-14T14:46:32.587Z,60.30
2022-11-14T14:49:01.279Z,60.30
2022-11-14T14:51:35.621Z,60.30
2022-11-14T14:54:02.219Z,60.30
2022-11-14T14:56:28.893Z,60.30
2022-11-14T14:58:55.498Z,60.30
2022-11-14T15:01:32.888Z,60.30
2022-11-14T15:04:06.468Z,60.30
2022-11-14T15:06:37.610Z,60.30
2022-11-14T15:09:29.692Z,60.30
2022-11-14T15:11:56.927Z,60.30
2022-11-14T15:14:27.695Z,60.20
2022-11-14T15:16:55.676Z,60.20
2022-11-14T15:19:24.190Z,60.30
2022-11-14T15:22:15.962Z,60.30
2022-11-14T15:24:42.544Z,60.20
2022-11-14T15:27:13.787Z,60.30
2022-11-14T15:30:07.203Z,60.30
2022-11-14T15:32:33.791Z,60.20
2022-11-14T15:35:23.904Z,60.30
2022-11-14T15:38:43.083Z,60.20
2022-11-14T15:41:19.304Z,60.20
2022-11-14T15:43:47.954Z,60.20
2022-11-14T15:46:34.495Z,60.20
2022-11-14T15:49:01.877Z,60.20
2022-11-14T15:52:00.958Z,60.30
2022-11-14T15:54:34.445Z,60.30
2022-11-14T15:57:02.465Z,60.20
2022-11-14T15:59:30.401Z,60.30
2022-11-14T16:02:06.396Z,60.30
2022-11-14T16:04:33.999Z,60.20
2022-11-14T16:07:00.636Z,60.30
2022-11-14T16:09:27.224Z,60.20
2022-11-14T16:11:53.802Z,60.30
2022-11-14T16:14:20.364Z,60.30
2022-11-14T16:16:46.950Z,60.30
2022-11-14T16:19:14.970Z,60.20
2022-11-14T16:21:41.812Z,60.30
2022-11-14T16:24:16.215Z,60.30
2022-11-14T16:26:42.887Z,60.20
2022-11-14T16:29:09.499Z,60.20
2022-11-14T16:31:36.470Z,60.20
2022-11-14T16:34:03.028Z,60.20
2022-11-14T16:36:29.604Z,60.20
2022-11-14T16:39:03.602Z,60.20
2022-11-14T16:41:30.170Z,60.20
2022-11-14T16:43:57.375Z,60.20
2022-11-14T16:46:24.128Z,60.20
2022-11-14T16:48:50.824Z,60.20
2022-11-14T16:51:46.323Z,60.20
2022-11-14T16:54:04.086Z,60.20
2022-11-14T16:56:31.059Z,60.30
2022-11-14T16:58:57.785Z,60.20
2022-11-14T17:01:24.426Z,60.20
2022-11-14T17:03:51.088Z,60.20
2022-11-14T17:06:17.673Z,60.30
2022-11-14T17:08:44.242Z,60.20
2022-11-14T17:11:10.971Z,60.20
2022-11-14T17:13:37.803Z,60.30
2022-11-14T17:16:04.728Z,60.30
2022-11-14T17:18:37.134Z,60.30
2022-11-14T17:21:08.875Z,60.30
2022-11-14T17:23:35.521Z,60.30
2022-11-14T17:26:06.087Z,60.30
2022-11-14T17:28:33.688Z,60.20
2022-11-14T17:31:00.548Z,60.30
2022-11-14T17:33:27.115Z,60.30
2022-11-14T17:35:53.772Z,60.20
2022-11-14T17:38:20.335Z,60.20
2022-11-14T17:40:46.914Z,60.30
2022-11-14T17:43:16.463Z,60.20
2022-11-14T17:45:43.060Z,60.30
2022-11-14T17:48:09.622Z,60.20
2022-11-14T17:50:39.272Z,60.20
2022-11-14T17:53:05.843Z,60.20
2022-11-14T17:55:32.409Z,60.90
2022-11-14T17:57:58.997Z,60.20
2022-11-14T18:00:25.562Z,60.20
2022-11-14T18:02:52.303Z,60.20
2022-11-14T18:05:18.871Z,60.20
2022-11-14T18:07:45.456Z,60.20
2022-11-14T18:10:12.027Z,60.30
2022-11-14T18:12:38.697Z,60.20
2022-11-14T18:15:05.904Z,60.20
2022-11-14T18:17:32.549Z,60.20
2022-11-14T18:20:01.835Z,60.20
2022-11-14T18:22:28.426Z,60.30
2022-11-14T18:24:55.037Z,60.20
2022-11-14T18:27:21.716Z,60.20
2022-11-14T18:29:48.552Z,60.30
2022-11-14T18:32:15.596Z,60.30
2022-11-14T18:34:42.207Z,60.20
2022-11-14T18:37:08.777Z,60.20
2022-11-14T18:39:35.380Z,60.20
2022-11-14T18:42:01.991Z,60.20
2022-11-14T18:44:28.684Z,60.30
2022-11-14T18:46:55.257Z,60.20
2022-11-14T18:49:21.907Z,60.30
2022-11-14T18:51:49.066Z,60.20
2022-11-14T18:54:16.209Z,60.30
2022-11-14T18:56:42.824Z,60.20
2022-11-14T18:59:10.420Z,60.20
2022-11-14T19:01:37.065Z,60.20
2022-11-14T19:04:05.398Z,60.20
2022-11-14T19:06:32.647Z,60.30
2022-11-14T19:08:59.785Z,60.20
2022-11-14T19:11:45.186Z,60.20
2022-11-14T19:14:11.757Z,60.20
2022-11-14T19:16:38.337Z,60.20
2022-11-14T19:19:05.677Z,60.20
2022-11-14T19:21:32.268Z,60.20
2022-11-14T19:24:01.668Z,60.30
2022-11-14T19:26:28.345Z,60.20
2022-11-14T19:28:55.169Z,60.20
2022-11-14T19:31:22.064Z,60.20
2022-11-14T19:33:48.699Z,60.30
2022-11-14T19:36:38.490Z,60.20
2022-11-14T19:39:06.936Z,60.20
2022-11-14T19:41:33.588Z,60.20
2022-11-14T19:44:00.714Z,60.10
2022-11-14T19:46:29.024Z,60.30
2022-11-14T19:48:56.843Z,60.20
2022-11-14T19:51:24.111Z,60.30
2022-11-14T19:53:50.725Z,60.20
2022-11-14T19:56:17.929Z,60.10
2022-11-14T19:58:45.655Z,60.20
2022-11-14T20:01:13.740Z,60.80
2022-11-14T20:03:40.459Z,60.20
2022-11-14T20:06:23.224Z,60.10
2022-11-14T20:08:50.639Z,60.10
2022-11-14T20:11:17.252Z,60.10
2022-11-14T20:13:44.070Z,60.10
2022-11-14T20:16:15.023Z,60.10
2022-11-14T20:18:41.970Z,60.10
2022-11-14T20:21:11.926Z,60.10
2022-11-14T20:23:38.507Z,60.00
2022-11-14T20:26:10.024Z,60.10
2022-11-14T20:28:38.563Z,60.10
2022-11-14T20:31:06.823Z,60.10
2022-11-14T20:33:36.667Z,60.10
2022-11-14T20:36:07.507Z,60.10
2022-11-14T20:38:34.087Z,60.10
2022-11-14T20:41:00.872Z,60.00
2022-11-14T20:43:29.962Z,60.00
2022-11-14T20:46:07.442Z,60.00
2022-11-14T20:48:34.267Z,60.00
2022-11-14T20:51:07.994Z,60.10
2022-11-14T20:53:34.687Z,60.10
2022-11-14T20:56:01.276Z,60.10
2022-11-14T20:58:28.141Z,60.10
2022-11-14T21:00:54.897Z,60.10
2022-11-14T21:03:21.523Z,60.10
2022-11-14T21:05:48.092Z,60.10
2022-11-14T21:08:15.242Z,60.10
2022-11-14T21:10:45.633Z,60.10
2022-11-14T21:13:32.208Z,60.10
2022-11-14T21:15:59.701Z,60.00
2022-11-14T21:18:26.395Z,60.00
2022-11-14T21:21:19.069Z,60.00
2022-11-14T21:23:46.202Z,60.00
2022-11-14T21:26:13.457Z,60.00
2022-11-14T21:28:42.084Z,60.00
2022-11-14T21:31:25.074Z,60.10
2022-11-14T21:33:53.906Z,60.00
2022-11-14T21:36:43.677Z,60.10
2022-11-14T21:39:07.171Z,60.00
2022-11-14T21:41:33.763Z,60.00
2022-11-14T21:44:01.502Z,60.10
2022-11-14T21:46:28.443Z,60.00
2022-11-14T21:48:55.377Z,60.00
2022-11-14T21:51:26.446Z,60.00
2022-11-14T21:53:55.238Z,60.00
2022-11-14T21:56:23.458Z,60.00
2022-11-14T21:58:50.530Z,60.00
2022-11-14T22:01:39.494Z,60.00
2022-11-14T22:04:12.403Z,60.00
2022-11-14T22:06:39.750Z,60.00
2022-11-14T22:09:06.463Z,60.00
2022-11-14T22:11:33.166Z,60.00
2022-11-14T22:13:59.728Z,60.00
2022-11-14T22:16:26.325Z,60.00
2022-11-14T22:18:52.931Z,60.00
2022-11-14T22:21:19.513Z,60.00
2022-11-14T22:23:46.162Z,60.00
2022-11-14T22:26:12.966Z,60.00
2022-11-14T22:28:39.602Z,60.00
2022-11-14T22:31:16.739Z,60.00
2022-11-14T22:33:46.805Z,60.00
2022-11-14T22:36:18.032Z,60.00
2022-11-14T22:38:44.807Z,60.00
2022-11-14T22:41:13.675Z,60.00
2022-11-14T22:43:40.320Z,60.00
2022-11-14T22:46:06.899Z,60.00
2022-11-14T22:48:34.189Z,60.00
2022-11-14T22:51:08.805Z,60.00
2022-11-14T22:53:35.889Z,60.00
2022-11-14T22:56:02.779Z,60.00
2022-11-14T22:58:33.582Z,60.00
2022-11-14T23:01:00.157Z,60.00
2022-11-14T23:03:26.915Z,60.00
2022-11-14T23:05:53.498Z,60.00
2022-11-14T23:08:20.289Z,60.00
2022-11-14T23:10:47.501Z,60.00
2022-11-14T23:13:14.484Z,60.00
2022-11-14T23:15:46.170Z,60.00
2022-11-14T23:18:12.784Z,60.00
2022-11-14T23:20:39.376Z,60.00
2022-11-14T23:23:05.945Z,60.00
2022-11-14T23:25:32.502Z,60.00
2022-11-14T23:27:59.090Z,60.00
2022-11-14T23:30:25.668Z,60.00
2022-11-14T23:32:52.239Z,60.00
2022-11-14T23:35:18.812Z,60.00
2022-11-14T23:37:45.397Z,60.00
2022-11-14T23:40:12.012Z,60.00
2022-11-14T23:42:38.593Z,60.00
2022-11-14T23:45:05.457Z,60.00
2022-11-14T23:47:32.068Z,59.90
2022-11-14T23:49:58.625Z,60.00
2022-11-14T23:52:25.228Z,60.00
2022-11-14T23:54:51.796Z,59.90
2022-11-14T23:57:18.381Z,60.00
2022-11-14T23:59:44.937Z,60.00
